KALN/ALN METAR and TAF weather

Enter ICAO airport designator
Station Type Date Time Source
KALN METAR 2018/06/25 16:45 UTC NOAA

KALN 251645Z 11008KT 10SM SCT014 OVC022 25/23 A3002


Station Type Date Time Source
KALN Decoded METAR 2018/06/25 16:45 UTC NOAA

Alton/St. Louis, St. Louis Regional Airport, IL, United States (KALN) 38-54N 090-03W
Jun 25, 2018 - 12:45 PM EDT / 2018.06.25 1645 UTC
Wind: from the ESE (110 degrees) at 9 MPH (8 KT):0
Visibility: 10 mile(s):0
Sky conditions: overcast
Temperature: 77 F (25 C)
Dew Point: 73 F (23 C)
Relative Humidity: 88%
Pressure (altimeter): 30.02 in. Hg (1016 hPa)
ob: KALN 251645Z 11008KT 10SM SCT014 OVC022 25/23 A3002
cycle: 17

Station Type Date Time Source
KALN TAF UTC NOAA

Error!


Example: see airport list